Time;durP1;ratioP1;P1;durP2;ratioP2;P2;SDS_P1;SDS_P2;PMS_P1;PMS_P2;Temp;Humidity;BMP_temperature;BMP_pressure;BME280_temperature;BME280_humidity;BME280_pressure;Samples;Min_cycle;Max_cycle;Signal;HPM_P1;HPM_P2
2023/08/09 00:02:07;;;;;;;1.97;1.87;;;15.20;99.90;;;;;;5075223;28;20208;-66
2023/08/09 00:04:32;;;;;;;1.53;1.43;;;15.30;99.90;;;;;;5082395;28;20204;-67
2023/08/09 00:06:58;;;;;;;1.60;1.50;;;15.20;99.90;;;;;;5082142;28;20191;-66
2023/08/09 00:09:24;;;;;;;2.20;1.77;;;15.20;99.90;;;;;;5082573;28;20180;-67
2023/08/09 00:11:49;;;;;;;2.00;1.57;;;15.20;99.90;;;;;;5082855;28;20224;-66
2023/08/09 00:14:15;;;;;;;1.53;1.20;;;15.30;99.90;;;;;;5081943;28;20676;-67
2023/08/09 00:16:41;;;;;;;0.60;0.50;;;15.30;99.90;;;;;;5082390;28;20188;-67
2023/08/09 00:19:07;;;;;;;0.80;0.60;;;15.20;99.90;;;;;;5082383;28;20180;-66
2023/08/09 00:21:32;;;;;;;0.50;0.40;;;15.20;99.90;;;;;;5082068;28;20204;-67
2023/08/09 00:23:58;;;;;;;0.70;0.50;;;15.20;99.90;;;;;;5081792;28;20212;-66
2023/08/09 00:26:25;;;;;;;0.87;0.50;;;15.10;99.90;;;;;;5052646;28;20265;-67
2023/08/09 00:28:52;;;;;;;1.00;0.50;;;15.10;99.90;;;;;;5082028;28;20180;-67
2023/08/09 00:31:18;;;;;;;1.00;0.70;;;15.10;99.90;;;;;;5082310;28;20457;-67
2023/08/09 00:33:44;;;;;;;0.93;0.83;;;15.00;99.90;;;;;;5081617;28;20521;-67
2023/08/09 00:36:09;;;;;;;1.20;1.10;;;15.00;99.90;;;;;;5082205;28;20249;-67
2023/08/09 00:38:36;;;;;;;2.33;1.33;;;15.00;99.90;;;;;;5082907;28;20426;-67
2023/08/09 00:41:02;;;;;;;2.47;1.70;;;15.00;99.90;;;;;;5082200;28;20606;-66
2023/08/09 00:43:28;;;;;;;1.60;1.40;;;15.00;99.90;;;;;;5083093;28;20519;-67
2023/08/09 00:45:53;;;;;;;1.83;1.70;;;15.00;99.90;;;;;;5081244;28;20414;-66
2023/08/09 00:48:19;;;;;;;1.50;1.30;;;15.00;99.90;;;;;;5064212;28;20192;-66
2023/08/09 00:50:45;;;;;;;1.20;1.10;;;15.00;99.90;;;;;;5082457;28;20238;-67
2023/08/09 00:53:11;;;;;;;1.37;1.10;;;15.00;99.90;;;;;;5060200;28;20187;-67
2023/08/09 00:55:38;;;;;;;1.83;1.20;;;15.00;99.90;;;;;;5061454;28;20476;-67
2023/08/09 00:58:04;;;;;;;0.80;0.80;;;15.00;99.90;;;;;;5061366;28;20925;-66
2023/08/09 01:00:30;;;;;;;0.70;0.60;;;15.00;99.90;;;;;;5062406;28;20426;-66
2023/08/09 01:02:56;;;;;;;1.57;0.73;;;15.00;99.90;;;;;;5061957;28;20208;-66
2023/08/09 01:05:29;;;;;;;1.17;0.60;;;15.00;99.90;;;;;;5060157;28;21359;-65
2023/08/09 01:08:00;;;;;;;0.70;0.70;;;14.90;99.90;;;;;;5061584;28;20185;-65
2023/08/09 01:10:31;;;;;;;0.63;0.50;;;14.90;99.90;;;;;;5062156;28;20515;-65
2023/08/09 01:13:03;;;;;;;0.80;0.70;;;14.90;99.90;;;;;;5061696;28;20411;-65
2023/08/09 01:15:31;;;;;;;1.17;0.67;;;14.80;99.90;;;;;;5060567;28;20458;-66
2023/08/09 01:17:58;;;;;;;1.17;0.80;;;14.80;99.90;;;;;;5062054;28;21181;-66
2023/08/09 01:20:25;;;;;;;0.60;0.50;;;14.80;99.90;;;;;;5061699;28;20419;-66
2023/08/09 01:23:05;;;;;;;1.03;0.90;;;14.80;99.90;;;;;;5061763;28;20475;-66
2023/08/09 01:25:32;;;;;;;0.87;0.73;;;14.70;99.90;;;;;;5059351;28;20773;-65
2023/08/09 01:27:58;;;;;;;0.70;0.60;;;14.70;99.90;;;;;;5062094;28;20438;-65
2023/08/09 01:30:24;;;;;;;0.73;0.63;;;14.60;99.90;;;;;;5060907;28;20447;-66
2023/08/09 01:32:51;;;;;;;1.63;1.10;;;14.60;99.90;;;;;;5061511;28;20419;-66
2023/08/09 01:35:17;;;;;;;1.50;1.10;;;14.70;99.90;;;;;;5059731;28;20510;-65
2023/08/09 01:37:52;;;;;;;1.03;0.90;;;14.70;99.90;;;;;;5061333;28;20415;-65
2023/08/09 01:40:19;;;;;;;1.53;1.40;;;14.60;99.90;;;;;;5061206;28;20415;-66
2023/08/09 01:42:45;;;;;;;1.73;1.10;;;14.70;99.90;;;;;;5043529;28;20463;-66
2023/08/09 01:45:12;;;;;;;1.90;1.37;;;14.60;99.90;;;;;;5059725;28;20427;-66
2023/08/09 01:47:40;;;;;;;2.40;1.90;;;14.60;99.90;;;;;;5061332;28;20470;-67
2023/08/09 01:50:06;;;;;;;2.17;1.77;;;14.60;99.90;;;;;;5061362;28;20416;-65
2023/08/09 01:52:32;;;;;;;4.10;2.80;;;14.50;99.90;;;;;;5060785;28;20522;-66
2023/08/09 01:54:58;;;;;;;3.30;2.90;;;14.60;99.90;;;;;;5067294;28;20438;-65
2023/08/09 01:57:24;;;;;;;5.03;3.83;;;14.60;99.90;;;;;;5071945;28;20235;-66
2023/08/09 01:59:50;;;;;;;4.97;3.40;;;14.60;99.90;;;;;;5067252;28;21230;-66
2023/08/09 02:02:16;;;;;;;4.60;3.93;;;14.60;99.90;;;;;;5074695;28;20216;-65
2023/08/09 02:04:42;;;;;;;3.63;3.33;;;14.60;99.90;;;;;;5068090;28;20775;-66
2023/08/09 02:07:08;;;;;;;5.00;3.97;;;14.60;99.90;;;;;;5080501;28;20437;-65
2023/08/09 02:09:34;;;;;;;4.70;3.77;;;14.70;99.90;;;;;;5080211;28;21238;-65
2023/08/09 02:12:00;;;;;;;5.20;4.00;;;14.70;99.90;;;;;;5076749;28;20436;-66
2023/08/09 02:14:26;;;;;;;4.20;3.80;;;14.70;99.90;;;;;;5079481;28;20237;-66
2023/08/09 02:16:52;;;;;;;4.57;4.07;;;14.70;99.90;;;;;;5079787;28;20185;-66
2023/08/09 02:19:19;;;;;;;4.87;4.37;;;14.70;99.90;;;;;;5080163;28;20834;-66
2023/08/09 02:21:45;;;;;;;5.53;5.03;;;14.70;99.90;;;;;;5080648;28;20643;-67
2023/08/09 02:24:11;;;;;;;5.70;4.60;;;14.60;99.90;;;;;;5079996;28;20422;-66
2023/08/09 02:26:40;;;;;;;6.13;5.13;;;14.50;99.90;;;;;;5080250;28;20241;-66
2023/08/09 02:29:05;;;;;;;7.63;5.60;;;14.50;99.90;;;;;;5082518;28;20184;-66
2023/08/09 02:31:31;;;;;;;5.37;4.87;;;14.60;99.90;;;;;;5079700;28;20414;-67
2023/08/09 02:33:58;;;;;;;5.40;4.90;;;14.50;99.90;;;;;;5079652;28;20183;-67
2023/08/09 02:36:24;;;;;;;5.97;5.47;;;14.50;99.90;;;;;;5079278;28;20180;-66
2023/08/09 02:38:49;;;;;;;5.73;5.23;;;14.50;99.90;;;;;;5080708;28;20444;-67
2023/08/09 02:41:15;;;;;;;4.80;4.40;;;14.50;99.90;;;;;;5080131;28;20426;-66
2023/08/09 02:43:41;;;;;;;4.67;4.20;;;14.50;99.90;;;;;;5081468;28;21010;-66
2023/08/09 02:46:07;;;;;;;4.80;4.40;;;14.60;99.90;;;;;;5084002;28;20183;-66
2023/08/09 02:48:32;;;;;;;4.73;4.20;;;14.50;99.90;;;;;;5083762;28;20710;-66
2023/08/09 02:50:58;;;;;;;4.20;3.90;;;14.60;99.90;;;;;;5084443;28;20172;-65
2023/08/09 02:53:36;;;;;;;4.97;4.47;;;14.60;99.90;;;;;;5078531;28;20184;-66
2023/08/09 02:56:02;;;;;;;4.83;4.43;;;14.50;99.90;;;;;;5057214;28;20249;-67
2023/08/09 02:58:27;;;;;;;4.40;3.97;;;14.40;99.90;;;;;;5082423;28;20426;-66
2023/08/09 03:00:53;;;;;;;5.47;4.97;;;14.40;99.90;;;;;;5084475;28;20754;-65
2023/08/09 03:03:19;;;;;;;5.13;4.63;;;14.30;99.90;;;;;;5084575;28;20227;-67
2023/08/09 03:05:45;;;;;;;6.03;5.43;;;14.30;99.90;;;;;;5083216;28;20192;-66
2023/08/09 03:08:10;;;;;;;5.37;4.87;;;14.20;99.90;;;;;;5084831;28;20222;-65
2023/08/09 03:10:36;;;;;;;5.03;4.63;;;14.20;99.90;;;;;;5083848;28;20172;-66
2023/08/09 03:13:02;;;;;;;6.33;5.73;;;14.20;99.90;;;;;;5084783;28;20200;-66
2023/08/09 03:15:28;;;;;;;6.23;5.63;;;14.10;99.90;;;;;;5082185;28;20199;-66
2023/08/09 03:17:54;;;;;;;6.87;6.00;;;14.20;99.90;;;;;;5084225;28;20203;-67
2023/08/09 03:20:19;;;;;;;6.60;5.90;;;14.20;99.90;;;;;;5084327;28;20963;-66
2023/08/09 03:22:47;;;;;;;7.13;6.40;;;14.10;99.90;;;;;;5083938;28;20204;-67
2023/08/09 03:25:13;;;;;;;7.90;7.10;;;14.20;99.90;;;;;;5083546;28;20279;-66
2023/08/09 03:27:39;;;;;;;8.63;7.77;;;14.10;99.90;;;;;;5084019;28;20414;-67
2023/08/09 03:30:06;;;;;;;10.37;8.70;;;14.10;99.90;;;;;;5084395;28;20422;-67
2023/08/09 03:32:32;;;;;;;11.10;9.73;;;14.20;99.90;;;;;;5082925;28;20962;-66
2023/08/09 03:34:57;;;;;;;8.80;7.87;;;14.20;99.90;;;;;;5083976;28;20426;-66
2023/08/09 03:37:23;;;;;;;8.70;7.80;;;14.20;99.90;;;;;;5083974;28;20176;-66
2023/08/09 03:39:49;;;;;;;10.20;9.13;;;14.20;99.90;;;;;;5083745;28;20491;-66
2023/08/09 03:42:14;;;;;;;9.47;8.23;;;14.20;99.90;;;;;;5084193;28;20215;-66
2023/08/09 03:44:40;;;;;;;10.30;8.70;;;14.20;99.90;;;;;;5082218;28;20241;-67
2023/08/09 03:47:06;;;;;;;11.90;10.00;;;14.20;99.90;;;;;;5083720;28;20259;-66
2023/08/09 03:49:31;;;;;;;10.40;8.60;;;14.20;99.90;;;;;;5083582;28;20183;-66
2023/08/09 03:51:57;;;;;;;9.57;8.03;;;14.20;99.90;;;;;;5082033;28;20168;-66
2023/08/09 03:54:23;;;;;;;9.37;8.43;;;14.30;99.90;;;;;;5062013;28;20203;-67
2023/08/09 03:56:48;;;;;;;9.27;8.37;;;14.30;99.90;;;;;;5061857;28;20662;-66
2023/08/09 03:59:14;;;;;;;9.77;7.70;;;14.30;99.90;;;;;;5063188;28;20184;-66
2023/08/09 04:01:40;;;;;;;9.40;7.77;;;14.20;99.90;;;;;;5062645;28;20603;-67
2023/08/09 04:04:07;;;;;;;9.43;8.20;;;14.20;99.90;;;;;;5062951;28;20264;-66
2023/08/09 04:06:32;;;;;;;7.93;7.13;;;14.20;99.90;;;;;;5062799;28;20300;-66
2023/08/09 04:08:58;;;;;;;9.13;8.20;;;14.20;99.90;;;;;;5063188;28;20514;-66
2023/08/09 04:11:24;;;;;;;8.87;7.97;;;14.30;99.90;;;;;;5063279;28;20545;-66
2023/08/09 04:13:49;;;;;;;9.30;8.40;;;14.20;99.90;;;;;;5043561;28;20546;-66
2023/08/09 04:16:15;;;;;;;9.77;8.77;;;14.20;99.90;;;;;;5061738;28;20180;-66
2023/08/09 04:18:41;;;;;;;11.37;10.10;;;14.30;99.90;;;;;;5062673;28;20260;-67
2023/08/09 04:21:07;;;;;;;9.37;8.50;;;14.30;99.90;;;;;;5062800;28;20181;-66
2023/08/09 04:23:33;;;;;;;12.23;9.97;;;14.30;99.90;;;;;;5063000;28;20478;-67
2023/08/09 04:26:00;;;;;;;10.83;9.73;;;14.30;99.90;;;;;;5061297;28;20265;-66
2023/08/09 04:28:26;;;;;;;12.53;10.80;;;14.20;99.90;;;;;;5063091;28;20449;-66
2023/08/09 04:30:53;;;;;;;10.70;9.60;;;14.30;99.90;;;;;;5080492;28;20939;-66
2023/08/09 04:33:18;;;;;;;12.50;10.60;;;14.20;99.90;;;;;;5082985;28;20529;-66
2023/08/09 04:35:44;;;;;;;12.13;10.93;;;14.20;99.90;;;;;;5081493;28;20868;-66
2023/08/09 04:38:10;;;;;;;12.33;11.13;;;14.30;99.90;;;;;;5082893;28;20176;-66
2023/08/09 04:40:36;;;;;;;11.83;10.63;;;14.30;99.90;;;;;;5065257;28;20184;-66
2023/08/09 04:43:03;;;;;;;14.00;12.50;;;14.30;99.90;;;;;;5082123;28;20458;-67
2023/08/09 04:45:30;;;;;;;13.03;11.70;;;14.30;99.90;;;;;;5082015;28;20944;-66
2023/08/09 04:47:57;;;;;;;12.57;11.27;;;14.30;99.90;;;;;;5082258;28;21291;-66
2023/08/09 04:50:23;;;;;;;13.53;12.23;;;14.30;99.90;;;;;;5082929;28;20410;-66
2023/08/09 04:52:50;;;;;;;14.00;12.03;;;14.20;99.90;;;;;;5078755;28;20431;-66
2023/08/09 04:55:16;;;;;;;18.10;14.33;;;14.10;99.90;;;;;;5077098;28;20442;-67
2023/08/09 04:57:42;;;;;;;16.27;14.57;;;14.10;99.90;;;;;;5073489;28;20415;-67
2023/08/09 05:00:13;;;;;;;13.43;12.07;;;14.10;99.90;;;;;;5077079;28;20454;-67
2023/08/09 05:02:39;;;;;;;11.97;10.87;;;14.10;99.90;;;;;;5055147;28;20577;-68
2023/08/09 05:05:09;;;;;;;12.60;11.30;;;14.10;99.90;;;;;;5075090;28;20437;-67
2023/08/09 05:07:36;;;;;;;13.63;12.33;;;14.10;99.90;;;;;;5074222;28;20776;-66
2023/08/09 05:10:03;;;;;;;14.40;13.00;;;14.00;99.90;;;;;;5081675;28;20454;-67
2023/08/09 05:12:29;;;;;;;14.10;12.70;;;14.00;99.90;;;;;;5081687;28;20492;-67
2023/08/09 05:14:55;;;;;;;15.23;13.83;;;14.00;99.90;;;;;;5080900;28;20513;-66
2023/08/09 05:17:20;;;;;;;16.77;15.07;;;14.10;99.90;;;;;;5081634;28;20187;-66
2023/08/09 05:19:46;;;;;;;14.90;13.40;;;14.10;99.90;;;;;;5082034;28;20423;-67
2023/08/09 05:22:12;;;;;;;14.60;13.03;;;14.10;99.90;;;;;;5081759;28;20218;-67
2023/08/09 05:24:39;;;;;;;13.80;12.40;;;14.10;99.90;;;;;;5079949;28;20184;-68
2023/08/09 05:27:04;;;;;;;14.20;12.80;;;14.10;99.90;;;;;;5081272;28;20414;-67
2023/08/09 05:29:30;;;;;;;14.53;12.80;;;14.10;99.90;;;;;;5078382;28;20419;-67
2023/08/09 05:31:56;;;;;;;17.53;14.70;;;14.10;99.90;;;;;;5081605;28;20981;-67
2023/08/09 05:34:21;;;;;;;14.10;12.70;;;14.10;99.90;;;;;;5081399;28;20175;-66
2023/08/09 05:36:47;;;;;;;14.27;12.77;;;14.10;99.90;;;;;;5081703;28;20233;-66
2023/08/09 05:39:13;;;;;;;14.67;12.80;;;14.20;99.90;;;;;;5081463;28;20178;-66
2023/08/09 05:41:39;;;;;;;15.40;13.80;;;14.20;99.90;;;;;;5081460;28;20204;-67
2023/08/09 05:44:05;;;;;;;15.20;13.70;;;14.20;99.90;;;;;;5080802;28;20701;-67
2023/08/09 05:46:31;;;;;;;17.17;13.80;;;14.20;99.90;;;;;;5081056;28;20429;-68
2023/08/09 05:48:57;;;;;;;15.13;13.53;;;14.20;99.90;;;;;;5081063;28;20442;-66
2023/08/09 05:51:23;;;;;;;16.67;13.23;;;14.30;99.90;;;;;;5081706;28;20423;-67
2023/08/09 05:53:49;;;;;;;16.73;14.63;;;14.30;99.90;;;;;;5063782;28;20426;-67
2023/08/09 05:56:14;;;;;;;16.40;14.70;;;14.40;99.90;;;;;;5060389;28;20420;-67
2023/08/09 05:58:40;;;;;;;15.13;13.60;;;14.40;99.90;;;;;;5075330;28;20172;-66
2023/08/09 06:01:07;;;;;;;16.27;14.67;;;14.30;99.90;;;;;;5080430;28;20218;-66
2023/08/09 06:03:39;;;;;;;16.20;14.47;;;14.40;99.90;;;;;;5080972;28;20215;-66
2023/08/09 06:06:13;;;;;;;16.10;14.40;;;14.40;99.90;;;;;;5080233;28;20451;-66
2023/08/09 06:08:39;;;;;;;17.50;15.70;;;14.40;99.90;;;;;;5081335;28;20505;-67
2023/08/09 06:11:05;;;;;;;16.63;14.93;;;14.40;99.90;;;;;;5080515;28;20422;-66
2023/08/09 06:13:31;;;;;;;16.80;15.00;;;14.40;99.90;;;;;;5080573;28;20418;-67
2023/08/09 06:15:57;;;;;;;16.33;14.17;;;14.50;99.90;;;;;;5080382;28;20419;-67
2023/08/09 06:18:23;;;;;;;18.00;14.10;;;14.50;99.90;;;;;;5074217;28;20922;-67
2023/08/09 06:20:49;;;;;;;14.43;12.93;;;14.50;99.90;;;;;;5058436;28;20441;-66
2023/08/09 06:23:15;;;;;;;15.07;13.57;;;14.60;99.90;;;;;;5070618;28;20225;-68
2023/08/09 06:25:41;;;;;;;14.23;12.77;;;14.70;99.90;;;;;;5079863;28;20422;-68
2023/08/09 06:28:08;;;;;;;15.57;12.60;;;14.70;99.90;;;;;;5080421;28;20418;-68
2023/08/09 06:30:33;;;;;;;16.67;12.57;;;14.70;99.90;;;;;;5064783;28;20193;-68
2023/08/09 06:32:59;;;;;;;13.60;12.07;;;14.70;99.90;;;;;;5060963;28;20423;-68
2023/08/09 06:35:26;;;;;;;15.33;11.50;;;14.60;99.90;;;;;;5061395;28;20231;-68
2023/08/09 06:37:52;;;;;;;12.30;11.10;;;14.70;99.90;;;;;;5063019;28;20783;-68
2023/08/09 06:40:18;;;;;;;14.70;11.90;;;14.60;99.90;;;;;;5061555;28;20423;-69
2023/08/09 06:42:44;;;;;;;14.93;13.43;;;14.60;99.90;;;;;;5061052;28;20467;-68
2023/08/09 06:45:11;;;;;;;15.07;13.13;;;14.60;99.90;;;;;;5059041;28;20485;-68
2023/08/09 06:47:37;;;;;;;13.80;12.40;;;14.60;99.90;;;;;;5060757;28;20439;-68
2023/08/09 06:50:06;;;;;;;13.50;12.10;;;14.60;99.90;;;;;;5060420;28;20835;-68
2023/08/09 06:52:36;;;;;;;13.90;12.50;;;14.70;99.90;;;;;;5066846;28;20437;-68
2023/08/09 06:55:05;;;;;;;13.90;12.50;;;14.70;99.90;;;;;;5080037;28;20446;-68
2023/08/09 06:57:31;;;;;;;13.73;12.33;;;14.80;99.90;;;;;;5062578;28;20813;-68
2023/08/09 06:59:57;;;;;;;13.80;12.40;;;14.80;99.90;;;;;;5080711;28;20414;-68
2023/08/09 07:02:23;;;;;;;12.13;10.93;;;14.90;99.90;;;;;;5080092;28;20247;-68
2023/08/09 07:04:54;;;;;;;13.83;12.43;;;15.10;99.90;;;;;;5080118;28;20483;-68
2023/08/09 07:07:21;;;;;;;14.57;12.90;;;15.20;99.90;;;;;;5079975;28;20473;-68
2023/08/09 07:09:46;;;;;;;15.30;13.10;;;15.30;99.90;;;;;;5080322;28;20429;-68
2023/08/09 07:12:12;;;;;;;13.33;11.47;;;15.30;99.90;;;;;;5079929;28;20415;-68
2023/08/09 07:14:39;;;;;;;13.27;11.93;;;15.30;99.90;;;;;;5079911;28;20235;-68
2023/08/09 07:17:05;;;;;;;10.87;9.77;;;15.20;99.90;;;;;;5080427;28;20430;-68
2023/08/09 07:19:31;;;;;;;14.67;11.10;;;15.20;99.90;;;;;;5080229;28;21355;-68
2023/08/09 07:21:56;;;;;;;10.90;9.80;;;15.40;99.90;;;;;;5079363;28;20215;-68
2023/08/09 07:24:22;;;;;;;12.37;11.13;;;15.50;99.90;;;;;;5079517;28;20223;-68
2023/08/09 07:26:48;;;;;;;13.70;10.73;;;15.60;99.90;;;;;;5070989;28;20184;-68
2023/08/09 07:29:13;;;;;;;13.53;11.13;;;15.70;99.90;;;;;;5064611;28;20185;-68
2023/08/09 07:31:39;;;;;;;10.70;9.60;;;15.80;99.90;;;;;;5066023;28;20656;-68
2023/08/09 07:34:05;;;;;;;10.70;9.60;;;15.80;99.90;;;;;;5065767;28;20226;-68
2023/08/09 07:36:30;;;;;;;10.93;9.83;;;15.90;99.90;;;;;;5047453;28;20286;-69
2023/08/09 07:38:58;;;;;;;11.07;9.10;;;16.00;99.90;;;;;;5066509;28;20256;-68
2023/08/09 07:41:24;;;;;;;10.97;8.90;;;16.10;99.90;;;;;;5065648;28;20185;-68
2023/08/09 07:43:50;;;;;;;11.67;9.67;;;16.20;99.90;;;;;;5066034;28;20420;-68
2023/08/09 07:46:16;;;;;;;11.83;9.77;;;16.30;99.90;;;;;;5065397;28;20422;-68
2023/08/09 07:48:41;;;;;;;12.33;8.43;;;16.40;99.90;;;;;;5064473;28;20686;-68
2023/08/09 07:51:11;;;;;;;11.90;9.00;;;16.50;99.90;;;;;;5065862;28;20187;-68
2023/08/09 07:53:38;;;;;;;11.03;9.43;;;16.50;99.90;;;;;;5064734;28;20524;-68
2023/08/09 07:56:04;;;;;;;12.47;8.70;;;16.40;99.90;;;;;;5046528;28;20459;-68
2023/08/09 07:58:29;;;;;;;13.33;10.00;;;16.40;99.90;;;;;;5064234;28;20515;-68
2023/08/09 08:00:55;;;;;;;12.63;10.47;;;16.40;99.90;;;;;;5065683;28;20180;-68
2023/08/09 08:03:21;;;;;;;12.27;10.13;;;16.40;99.90;;;;;;5065156;28;20213;-68
2023/08/09 08:05:46;;;;;;;10.77;9.63;;;16.40;99.90;;;;;;5065920;28;20809;-69
2023/08/09 08:08:14;;;;;;;13.50;11.17;;;16.50;99.90;;;;;;5067015;28;21097;-68
2023/08/09 08:10:41;;;;;;;13.40;10.57;;;16.50;99.90;;;;;;5066767;28;20764;-68
2023/08/09 08:13:06;;;;;;;14.70;10.70;;;16.50;99.90;;;;;;5065689;28;21296;-68
2023/08/09 08:15:32;;;;;;;16.10;11.50;;;16.50;99.90;;;;;;5064155;28;20427;-68
2023/08/09 08:17:58;;;;;;;15.40;11.13;;;16.50;99.90;;;;;;5065915;28;20663;-68
2023/08/09 08:20:24;;;;;;;13.57;10.17;;;16.50;99.90;;;;;;5065022;28;20169;-68
2023/08/09 08:22:50;;;;;;;16.90;11.20;;;16.60;99.90;;;;;;5047875;28;20961;-69
2023/08/09 08:25:17;;;;;;;12.73;10.50;;;16.60;99.90;;;;;;5064735;28;20411;-68
2023/08/09 08:27:45;;;;;;;12.33;11.03;;;16.50;99.90;;;;;;5064478;28;20423;-68
2023/08/09 08:30:13;;;;;;;14.63;10.17;;;16.50;99.90;;;;;;5078354;28;20454;-68
2023/08/09 08:32:39;;;;;;;16.00;10.87;;;16.50;99.90;;;;;;5084963;28;20422;-68
2023/08/09 08:35:10;;;;;;;15.77;11.77;;;16.50;99.90;;;;;;5084839;28;20421;-68
2023/08/09 08:37:36;;;;;;;17.87;13.03;;;16.50;99.90;;;;;;5084685;28;20419;-68
2023/08/09 08:40:07;;;;;;;13.40;10.87;;;16.50;99.90;;;;;;5085555;28;20427;-68
2023/08/09 08:42:33;;;;;;;14.33;9.93;;;16.60;99.90;;;;;;5083746;28;20504;-68
2023/08/09 08:44:58;;;;;;;14.10;10.97;;;16.60;99.90;;;;;;5084483;28;20414;-68
2023/08/09 08:47:25;;;;;;;15.67;13.00;;;16.70;99.90;;;;;;5084765;28;20208;-68
2023/08/09 08:49:55;;;;;;;18.67;13.00;;;16.80;99.90;;;;;;5084263;28;20176;-68
2023/08/09 08:52:26;;;;;;;13.53;11.60;;;16.90;99.90;;;;;;5077546;28;20423;-68
2023/08/09 08:54:53;;;;;;;15.03;11.63;;;17.00;99.90;;;;;;5061607;28;20637;-68
2023/08/09 08:57:20;;;;;;;17.10;12.07;;;17.10;99.90;;;;;;5044665;28;20458;-68
2023/08/09 08:59:46;;;;;;;18.00;12.93;;;17.20;99.90;;;;;;5060573;28;21260;-68
2023/08/09 09:02:13;;;;;;;13.20;11.10;;;17.20;99.90;;;;;;5062355;28;20475;-68
2023/08/09 09:04:39;;;;;;;12.93;10.37;;;17.20;99.90;;;;;;5041126;28;20422;-68
2023/08/09 09:07:05;;;;;;;14.43;11.80;;;17.30;99.90;;;;;;5062920;28;21036;-68
2023/08/09 09:09:31;;;;;;;15.63;12.50;;;17.30;99.90;;;;;;5061838;28;20438;-68
2023/08/09 09:12:00;;;;;;;17.17;13.37;;;17.40;99.90;;;;;;5061943;28;20404;-68
2023/08/09 09:14:25;;;;;;;21.27;12.67;;;17.40;99.90;;;;;;5061518;28;20516;-68
2023/08/09 09:16:51;;;;;;;14.83;10.07;;;17.30;99.90;;;;;;5061333;28;20792;-68
2023/08/09 09:19:17;;;;;;;13.10;10.73;;;17.30;99.90;;;;;;5062031;28;20268;-68
2023/08/09 09:21:43;;;;;;;13.50;10.27;;;17.20;99.90;;;;;;5060944;28;20434;-68
2023/08/09 09:24:10;;;;;;;15.20;11.50;;;17.20;99.90;;;;;;5062008;28;20992;-68
2023/08/09 09:26:37;;;;;;;12.57;10.23;;;17.20;99.90;;;;;;5061323;28;20176;-68
2023/08/09 09:29:08;;;;;;;12.80;9.80;;;17.30;99.90;;;;;;5065394;28;20507;-68
2023/08/09 09:31:39;;;;;;;12.70;8.97;;;17.60;99.90;;;;;;5082065;28;20417;-68
2023/08/09 09:34:07;;;;;;;9.47;8.47;;;17.70;99.90;;;;;;5081996;28;20988;-68
2023/08/09 09:36:37;;;;;;;10.40;9.17;;;17.90;99.90;;;;;;5081596;28;20433;-68
2023/08/09 09:39:10;;;;;;;10.20;9.10;;;18.00;99.90;;;;;;5086439;28;20413;-68
2023/08/09 09:41:38;;;;;;;8.80;7.87;;;18.20;99.90;;;;;;5084976;28;20406;-68
2023/08/09 09:44:04;;;;;;;9.83;8.60;;;18.20;99.90;;;;;;5083225;28;20422;-68
2023/08/09 09:46:30;;;;;;;8.93;7.93;;;18.40;99.90;;;;;;5081317;28;20414;-68
2023/08/09 09:49:01;;;;;;;10.60;7.20;;;18.60;99.90;;;;;;5081237;28;20557;-68
2023/08/09 09:51:28;;;;;;;8.83;7.43;;;18.80;99.90;;;;;;5081463;28;21027;-68
2023/08/09 09:53:53;;;;;;;7.67;6.87;;;19.00;99.90;;;;;;5062649;28;20485;-68
2023/08/09 09:56:19;;;;;;;8.77;7.97;;;19.10;99.90;;;;;;5060952;28;21142;-68
2023/08/09 09:58:45;;;;;;;9.27;8.37;;;19.20;99.90;;;;;;5059933;28;20177;-68
2023/08/09 10:01:19;;;;;;;8.60;7.40;;;19.30;99.90;;;;;;5061212;28;20185;-68
2023/08/09 10:03:45;;;;;;;7.77;7.07;;;19.30;99.90;;;;;;5058855;28;20467;-68
2023/08/09 10:06:17;;;;;;;8.90;7.13;;;19.30;99.90;;;;;;5060569;28;21134;-68
2023/08/09 10:08:43;;;;;;;10.80;8.13;;;19.40;99.90;;;;;;5043608;28;20415;-68
2023/08/09 10:11:09;;;;;;;8.57;7.67;;;19.50;99.90;;;;;;5061032;28;20751;-68
2023/08/09 10:13:37;;;;;;;7.70;6.87;;;19.40;99.90;;;;;;5061093;28;20506;-68
2023/08/09 10:16:06;;;;;;;8.77;7.87;;;19.40;99.90;;;;;;5059824;28;20424;-68
2023/08/09 10:18:43;;;;;;;8.07;7.27;;;19.20;99.90;;;;;;5060899;28;21137;-68
2023/08/09 10:21:13;;;;;;;7.70;7.00;;;19.00;99.90;;;;;;5060843;28;20427;-68
2023/08/09 10:23:38;;;;;;;8.43;7.60;;;19.00;99.90;;;;;;5060634;28;20515;-68
2023/08/09 10:26:04;;;;;;;7.80;7.10;;;19.10;99.90;;;;;;5059615;28;20929;-68
2023/08/09 10:28:39;;;;;;;8.10;7.30;;;19.10;99.90;;;;;;5060876;28;20181;-68
2023/08/09 10:31:05;;;;;;;9.40;7.33;;;19.10;99.90;;;;;;5060808;28;20187;-68
2023/08/09 10:33:33;;;;;;;8.80;7.80;;;19.10;99.90;;;;;;5075827;28;20576;-68
2023/08/09 10:35:59;;;;;;;8.83;6.77;;;19.20;99.90;;;;;;5078614;28;20184;-68
2023/08/09 10:38:31;;;;;;;6.77;6.00;;;19.20;99.90;;;;;;5061474;28;20424;-68
2023/08/09 10:40:58;;;;;;;6.10;5.60;;;19.10;99.90;;;;;;5079541;28;20929;-68
2023/08/09 10:43:26;;;;;;;5.77;5.27;;;19.10;99.90;;;;;;5080058;28;20519;-69
2023/08/09 10:45:56;;;;;;;5.60;5.10;;;19.10;99.90;;;;;;5078848;28;20422;-68
2023/08/09 10:48:26;;;;;;;5.10;4.60;;;19.10;99.90;;;;;;5079806;28;20445;-68
2023/08/09 10:51:07;;;;;;;7.50;5.50;;;19.10;99.90;;;;;;5079989;28;20530;-68
2023/08/09 10:53:55;;;;;;;6.40;5.80;;;19.20;99.90;;;;;;5069614;28;20518;-68
2023/08/09 10:56:42;;;;;;;5.10;4.60;;;19.30;99.90;;;;;;5079682;28;20434;-68
2023/08/09 10:59:14;;;;;;;6.10;5.40;;;19.30;99.90;;;;;;5078839;28;20453;-68
2023/08/09 11:01:43;;;;;;;5.23;4.83;;;19.20;99.90;;;;;;5067425;28;20521;-68
2023/08/09 11:04:13;;;;;;;5.20;4.70;;;19.10;99.90;;;;;;5078528;28;20868;-68
2023/08/09 11:06:41;;;;;;;5.50;5.00;;;19.10;99.90;;;;;;5083258;28;20563;-68
2023/08/09 11:09:22;;;;;;;5.33;4.83;;;19.10;99.90;;;;;;5064390;28;20433;-68
2023/08/09 11:11:50;;;;;;;5.00;4.50;;;19.20;99.90;;;;;;5087276;28;20430;-68
2023/08/09 11:14:18;;;;;;;5.87;5.20;;;19.20;99.90;;;;;;5085164;28;20449;-68
2023/08/09 11:16:44;;;;;;;7.63;4.47;;;19.20;99.90;;;;;;5085248;28;20422;-68
2023/08/09 11:19:18;;;;;;;5.87;5.30;;;19.20;99.90;;;;;;5083768;28;20436;-68
2023/08/09 11:21:53;;;;;;;6.20;5.60;;;19.40;99.90;;;;;;5062741;28;20441;-68
2023/08/09 11:24:21;;;;;;;5.00;4.50;;;19.40;99.90;;;;;;5051345;28;20522;-68
2023/08/09 11:26:49;;;;;;;5.07;4.67;;;19.40;99.90;;;;;;5083715;28;21130;-68
2023/08/09 11:29:17;;;;;;;6.00;4.90;;;19.50;99.90;;;;;;5077719;28;20431;-68
2023/08/09 11:31:45;;;;;;;6.20;5.60;;;19.50;99.90;;;;;;5077560;28;20575;-68
2023/08/09 11:34:12;;;;;;;9.17;6.10;;;19.60;99.90;;;;;;5081105;28;21138;-68
2023/08/09 11:36:40;;;;;;;6.70;6.10;;;19.60;99.90;;;;;;5083522;28;20458;-68
2023/08/09 11:39:07;;;;;;;12.80;6.67;;;19.50;99.90;;;;;;5082831;28;20496;-68
2023/08/09 11:41:42;;;;;;;7.87;6.10;;;19.60;99.90;;;;;;5083753;28;20430;-68
2023/08/09 11:44:08;;;;;;;7.43;6.73;;;19.60;99.90;;;;;;5082055;28;20520;-69
2023/08/09 11:46:34;;;;;;;6.40;5.80;;;19.60;99.90;;;;;;5065093;28;20441;-68
2023/08/09 11:49:04;;;;;;;7.87;5.50;;;19.60;99.90;;;;;;5082897;28;20438;-68
2023/08/09 11:51:33;;;;;;;7.20;6.50;;;19.60;99.90;;;;;;5083281;28;20709;-68
2023/08/09 11:54:00;;;;;;;7.87;6.60;;;19.40;99.90;;;;;;5070020;28;20806;-68
2023/08/09 11:56:35;;;;;;;7.20;6.00;;;19.30;99.90;;;;;;5083039;28;20810;-68
2023/08/09 11:59:03;;;;;;;7.80;6.33;;;19.20;99.90;;;;;;5050884;28;20465;-68
2023/08/09 12:01:33;;;;;;;6.37;5.77;;;19.30;99.90;;;;;;5082731;28;20446;-68
2023/08/09 12:04:04;;;;;;;11.50;5.83;;;19.20;99.90;;;;;;5081613;28;20541;-68
2023/08/09 12:06:56;;;;;;;5.50;4.67;;;19.30;99.90;;;;;;5074732;28;20427;-68
2023/08/09 12:09:36;;;;;;;6.20;5.50;;;19.40;99.90;;;;;;5073436;28;20433;-68
2023/08/09 12:12:08;;;;;;;7.70;6.70;;;19.50;99.90;;;;;;5070161;28;20480;-68
2023/08/09 12:14:40;;;;;;;9.53;7.70;;;19.60;99.90;;;;;;5082438;28;21036;-68
2023/08/09 12:17:06;;;;;;;6.17;5.30;;;19.70;99.90;;;;;;5081335;28;21125;-68
2023/08/09 12:19:32;;;;;;;8.40;5.00;;;19.70;99.90;;;;;;5082623;28;20418;-68
2023/08/09 12:21:59;;;;;;;7.00;5.40;;;19.60;99.90;;;;;;5083118;28;20450;-68
2023/08/09 12:24:26;;;;;;;5.43;4.73;;;19.70;99.90;;;;;;5061800;28;21196;-68
2023/08/09 12:26:52;;;;;;;7.53;5.63;;;19.80;99.90;;;;;;5082680;28;20430;-68
2023/08/09 12:29:18;;;;;;;9.77;7.00;;;19.80;99.90;;;;;;5078429;28;20462;-68
2023/08/09 12:31:45;;;;;;;10.43;7.53;;;19.80;99.90;;;;;;5082584;28;20525;-68
2023/08/09 12:34:11;;;;;;;9.30;7.00;;;19.80;99.90;;;;;;5073239;28;20185;-68
2023/08/09 12:36:38;;;;;;;7.97;7.03;;;19.80;99.90;;;;;;5081972;28;20968;-68
2023/08/09 12:39:04;;;;;;;7.33;6.13;;;19.70;99.90;;;;;;5082367;28;20817;-68